createdAt,value
2022-10-28T00:03:52.685Z,14.88
2022-10-28T00:07:54.794Z,14.86
2022-10-28T00:11:56.548Z,14.83
2022-10-28T00:16:11.041Z,14.84
2022-10-28T00:20:12.764Z,14.85
2022-10-28T00:24:14.561Z,14.87
2022-10-28T00:28:16.142Z,14.85
2022-10-28T00:32:19.527Z,14.85
2022-10-28T00:36:25.070Z,14.93
2022-10-28T00:40:26.672Z,14.96
2022-10-28T00:44:49.880Z,15.01
2022-10-28T00:49:00.041Z,15.09
2022-10-28T00:53:06.402Z,15.17
2022-10-28T00:57:13.977Z,15.23
2022-10-28T01:01:15.813Z,15.30
2022-10-28T01:05:22.461Z,15.35
2022-10-28T01:13:57.658Z,15.42
2022-10-28T01:18:07.601Z,15.45
2022-10-28T01:22:23.804Z,15.45
2022-10-28T01:26:44.488Z,15.37
2022-10-28T01:31:12.119Z,15.35
2022-10-28T01:35:57.534Z,15.44
2022-10-28T01:40:08.635Z,15.44
2022-10-28T01:45:01.112Z,15.45
2022-10-28T01:49:21.361Z,15.44
2022-10-28T01:53:27.179Z,15.46
2022-10-28T01:57:31.742Z,15.46
2022-10-28T02:01:34.496Z,15.41
2022-10-28T02:05:41.984Z,15.36
2022-10-28T02:09:43.493Z,15.36
2022-10-28T02:14:12.534Z,15.35
2022-10-28T02:18:40.187Z,15.31
2022-10-28T02:23:08.444Z,15.27
2022-10-28T02:27:21.839Z,15.23
2022-10-28T02:31:30.172Z,15.26
2022-10-28T02:35:41.054Z,15.31
2022-10-28T02:39:46.387Z,15.34
2022-10-28T02:43:53.308Z,15.35
2022-10-28T02:48:00.240Z,15.35
2022-10-28T02:52:05.926Z,15.37
2022-10-28T02:56:10.061Z,15.37
2022-10-28T03:00:16.849Z,15.38
2022-10-28T03:04:18.585Z,15.38
2022-10-28T03:08:20.163Z,15.38
2022-10-28T03:12:21.691Z,15.37
2022-10-28T03:16:23.342Z,15.38
2022-10-28T03:20:25.338Z,15.40
2022-10-28T03:24:26.976Z,15.40
2022-10-28T03:28:28.577Z,15.42
2022-10-28T03:32:30.175Z,15.41
2022-10-28T03:36:31.880Z,15.45
2022-10-28T03:40:34.393Z,15.50
2022-10-28T03:44:36.037Z,15.52
2022-10-28T03:48:37.573Z,15.54
2022-10-28T03:52:39.242Z,15.58
2022-10-28T03:56:40.951Z,15.60
2022-10-28T04:00:42.541Z,15.61
2022-10-28T04:04:44.331Z,15.59
2022-10-28T04:08:45.897Z,15.50
2022-10-28T04:12:47.526Z,15.39
2022-10-28T04:16:49.173Z,15.33
2022-10-28T04:20:50.787Z,15.32
2022-10-28T04:24:54.764Z,15.27
2022-10-28T04:28:56.300Z,15.26
2022-10-28T04:32:57.859Z,15.25
2022-10-28T04:36:59.411Z,15.28
2022-10-28T04:41:01.064Z,15.30
2022-10-28T04:45:02.632Z,15.32
2022-10-28T04:49:04.259Z,15.26
2022-10-28T04:53:05.904Z,15.25
2022-10-28T04:57:07.505Z,15.21
2022-10-28T05:01:10.287Z,15.12
2022-10-28T05:05:11.933Z,15.04
2022-10-28T05:09:13.659Z,15.01
2022-10-28T05:13:15.268Z,14.98
2022-10-28T05:17:17.127Z,15.00
2022-10-28T05:21:18.876Z,15.06
2022-10-28T05:25:22.133Z,15.09
2022-10-28T05:29:23.729Z,15.06
2022-10-28T05:33:25.443Z,15.06
2022-10-28T05:37:27.773Z,15.08
2022-10-28T05:41:29.369Z,15.00
2022-10-28T05:45:31.020Z,14.93
2022-10-28T05:49:33.319Z,14.93
2022-10-28T05:53:38.111Z,14.95
2022-10-28T05:57:39.748Z,14.99
2022-10-28T06:01:41.382Z,15.01
2022-10-28T06:05:44.771Z,15.04
2022-10-28T06:09:46.408Z,15.07
2022-10-28T06:13:46.972Z,15.10
2022-10-28T06:17:48.804Z,15.16
2022-10-28T06:21:50.350Z,15.22
2022-10-28T06:25:59.413Z,15.29
2022-10-28T06:30:01.119Z,15.35
2022-10-28T06:34:04.246Z,15.43
2022-10-28T06:38:09.288Z,15.55
2022-10-28T06:42:11.610Z,15.68
2022-10-28T06:46:13.298Z,15.79
2022-10-28T06:50:16.610Z,15.87
2022-10-28T06:54:18.470Z,15.94
2022-10-28T06:58:20.512Z,16.02
2022-10-28T07:02:22.694Z,16.08
2022-10-28T07:06:25.619Z,16.18
2022-10-28T07:10:27.344Z,16.29
2022-10-28T07:14:28.954Z,16.43
2022-10-28T07:18:30.945Z,16.57
2022-10-28T07:22:34.146Z,16.70
2022-10-28T07:26:35.809Z,16.82
2022-10-28T07:30:38.148Z,16.94
2022-10-28T07:34:39.763Z,16.95
2022-10-28T07:38:41.345Z,16.89
2022-10-28T07:42:42.966Z,16.87
2022-10-28T07:46:44.569Z,16.95
2022-10-28T07:50:46.176Z,17.02
2022-10-28T07:54:47.818Z,17.12
2022-10-28T07:58:50.258Z,17.26
2022-10-28T08:02:51.852Z,17.29
2022-10-28T08:10:55.870Z,17.39
2022-10-28T08:14:57.416Z,17.43
2022-10-28T08:18:59.141Z,17.56
2022-10-28T08:23:04.043Z,17.74
2022-10-28T08:27:08.224Z,17.96
2022-10-28T08:31:13.109Z,18.07
2022-10-28T08:35:15.123Z,18.05
2022-10-28T08:39:16.665Z,18.13
2022-10-28T08:43:57.168Z,18.25
2022-10-28T08:48:05.384Z,18.40
2022-10-28T08:52:28.361Z,18.62
2022-10-28T08:56:35.493Z,18.86
2022-10-28T09:00:40.251Z,19.04
2022-10-28T09:04:44.085Z,19.28
2022-10-28T09:08:50.087Z,19.37
2022-10-28T09:13:17.218Z,19.54
2022-10-28T09:17:21.297Z,19.65
2022-10-28T09:21:32.826Z,19.58
2022-10-28T09:25:48.901Z,19.53
2022-10-28T09:30:22.496Z,19.41
2022-10-28T09:34:39.685Z,19.35
2022-10-28T09:38:42.556Z,19.43
2022-10-28T09:43:00.593Z,19.48
2022-10-28T09:47:05.428Z,19.72
2022-10-28T09:51:22.489Z,19.93
2022-10-28T09:55:24.860Z,20.20
2022-10-28T09:59:26.519Z,20.29
2022-10-28T10:03:28.331Z,20.37
2022-10-28T10:07:43.470Z,20.49
2022-10-28T10:11:48.287Z,20.66
2022-10-28T10:15:55.125Z,20.81
2022-10-28T10:20:06.317Z,20.98
2022-10-28T10:24:27.978Z,21.10
2022-10-28T10:28:32.637Z,21.24
2022-10-28T10:32:34.406Z,21.32
2022-10-28T10:36:36.164Z,21.48
2022-10-28T10:40:48.221Z,21.64
2022-10-28T10:44:59.478Z,21.77
2022-10-28T10:49:16.723Z,21.92
2022-10-28T10:53:27.839Z,22.01
2022-10-28T10:57:31.135Z,22.16
2022-10-28T11:01:36.643Z,22.26
2022-10-28T11:05:40.131Z,22.45
2022-10-28T11:09:42.581Z,22.49
2022-10-28T11:13:46.362Z,22.55
2022-10-28T11:17:59.496Z,22.80
2022-10-28T11:22:29.235Z,22.97
2022-10-28T11:26:37.729Z,23.31
2022-10-28T11:30:54.141Z,23.63
2022-10-28T11:35:27.050Z,23.99
2022-10-28T11:40:07.129Z,24.46
2022-10-28T11:44:24.061Z,25.18
2022-10-28T11:48:59.028Z,25.75
2022-10-28T11:53:22.095Z,26.25
2022-10-28T11:57:39.139Z,26.61
2022-10-28T12:02:08.232Z,26.69
2022-10-28T12:06:28.749Z,26.77
2022-10-28T12:10:52.148Z,27.02
2022-10-28T12:15:15.661Z,26.99
2022-10-28T12:19:23.134Z,26.87
2022-10-28T12:23:26.217Z,26.69
2022-10-28T12:27:33.716Z,26.61
2022-10-28T12:31:44.583Z,26.53
2022-10-28T12:36:13.147Z,26.44
2022-10-28T12:40:43.882Z,26.82
2022-10-28T12:44:47.778Z,27.30
2022-10-28T12:48:59.310Z,27.20
2022-10-28T12:53:03.531Z,26.78
2022-10-28T12:57:13.158Z,26.57
2022-10-28T13:01:18.564Z,26.33
2022-10-28T13:05:25.141Z,26.05
2022-10-28T13:09:54.156Z,25.63
2022-10-28T13:14:13.510Z,25.41
2022-10-28T13:18:44.312Z,25.27
2022-10-28T13:23:11.452Z,25.10
2022-10-28T13:27:14.750Z,25.03
2022-10-28T13:31:17.166Z,24.90
2022-10-28T13:35:24.282Z,24.84
2022-10-28T13:39:42.163Z,24.90
2022-10-28T13:43:58.367Z,25.00
2022-10-28T13:48:37.757Z,25.03
2022-10-28T13:52:45.287Z,24.77
2022-10-28T13:56:49.799Z,24.62
2022-10-28T14:00:53.498Z,24.48
2022-10-28T14:05:05.618Z,24.44
2022-10-28T14:09:21.304Z,24.40
2022-10-28T14:13:23.332Z,24.33
2022-10-28T14:17:30.523Z,24.38
2022-10-28T14:21:48.207Z,24.34
2022-10-28T14:25:54.716Z,24.18
2022-10-28T14:29:56.189Z,24.01
2022-10-28T14:33:57.710Z,23.80
2022-10-28T14:38:20.195Z,23.70
2022-10-28T14:42:51.975Z,23.62
2022-10-28T14:47:08.721Z,23.54
2022-10-28T14:51:15.859Z,23.42
2022-10-28T14:55:24.986Z,23.31
2022-10-28T14:59:37.845Z,23.21
2022-10-28T15:03:39.919Z,23.10
2022-10-28T15:07:42.198Z,23.00
2022-10-28T15:12:07.373Z,22.95
2022-10-28T15:16:27.266Z,22.86
2022-10-28T15:20:32.011Z,22.81
2022-10-28T15:24:34.146Z,22.71
2022-10-28T15:28:37.162Z,22.54
2022-10-28T15:32:38.718Z,22.39
2022-10-28T15:36:40.552Z,22.24
2022-10-28T15:40:42.306Z,22.11
2022-10-28T15:44:44.921Z,21.97
2022-10-28T15:48:52.052Z,21.95
2022-10-28T15:53:14.839Z,21.92
2022-10-28T15:57:27.062Z,21.84
2022-10-28T16:01:35.928Z,21.78
2022-10-28T16:05:37.548Z,21.69
2022-10-28T16:09:47.755Z,21.64
2022-10-28T16:13:50.024Z,21.52
2022-10-28T16:17:51.926Z,21.36
2022-10-28T16:21:53.824Z,21.22
2022-10-28T16:25:55.362Z,21.08
2022-10-28T16:29:57.022Z,20.98
2022-10-28T16:33:59.795Z,20.86
2022-10-28T16:38:01.528Z,20.75
2022-10-28T16:42:03.243Z,20.66
2022-10-28T16:46:04.922Z,20.60
2022-10-28T16:50:06.970Z,20.55
2022-10-28T16:54:08.548Z,20.54
2022-10-28T16:58:10.217Z,20.52
2022-10-28T17:02:19.961Z,20.56
2022-10-28T17:06:21.792Z,20.65
2022-10-28T17:10:24.438Z,20.77
2022-10-28T17:14:25.895Z,20.94
2022-10-28T17:18:27.558Z,20.97
2022-10-28T17:22:29.326Z,20.94
2022-10-28T17:26:30.957Z,20.91
2022-10-28T17:30:32.627Z,20.91
2022-10-28T17:34:35.276Z,20.90
2022-10-28T17:38:36.844Z,20.84
2022-10-28T17:42:38.704Z,20.84
2022-10-28T17:46:40.974Z,20.83
2022-10-28T17:50:44.210Z,20.79
2022-10-28T17:54:46.099Z,20.76
2022-10-28T17:58:47.833Z,20.73
2022-10-28T18:02:49.618Z,20.68
2022-10-28T18:06:51.272Z,20.60
2022-10-28T18:10:57.672Z,20.49
2022-10-28T18:14:59.311Z,20.39
2022-10-28T18:19:04.923Z,20.29
2022-10-28T18:23:06.551Z,20.20
2022-10-28T18:27:09.194Z,20.19
2022-10-28T18:31:12.496Z,20.17
2022-10-28T18:35:14.275Z,20.18
2022-10-28T18:39:15.895Z,20.14
2022-10-28T18:43:17.674Z,20.13
2022-10-28T18:47:19.244Z,20.12
2022-10-28T18:51:20.976Z,20.11
2022-10-28T18:55:22.654Z,20.13
2022-10-28T18:59:24.393Z,20.17
2022-10-28T19:03:26.082Z,20.23
2022-10-28T19:07:27.690Z,20.29
2022-10-28T19:11:31.372Z,20.30
2022-10-28T19:15:33.179Z,20.32
2022-10-28T19:19:38.444Z,20.35
2022-10-28T19:23:41.847Z,20.39
2022-10-28T19:27:43.571Z,20.40
2022-10-28T19:31:45.184Z,20.43
2022-10-28T19:35:46.811Z,20.47
2022-10-28T19:39:50.873Z,20.55
2022-10-28T19:43:58.238Z,20.59
2022-10-28T19:48:01.892Z,20.58
2022-10-28T19:52:03.606Z,20.56
2022-10-28T19:56:05.782Z,20.51
2022-10-28T20:00:08.094Z,20.48
2022-10-28T20:04:13.320Z,20.43
2022-10-28T20:08:18.217Z,20.37
2022-10-28T20:12:19.984Z,20.27
2022-10-28T20:16:23.013Z,20.12
2022-10-28T20:20:24.676Z,20.05
2022-10-28T20:24:26.478Z,19.97
2022-10-28T20:28:30.167Z,19.87
2022-10-28T20:32:31.668Z,19.79
2022-10-28T20:36:39.174Z,19.75
2022-10-28T20:40:40.805Z,19.70
2022-10-28T20:44:42.333Z,19.68
2022-10-28T20:48:44.013Z,19.58
2022-10-28T20:52:45.624Z,19.53
2022-10-28T20:56:47.216Z,19.49
2022-10-28T21:00:50.998Z,19.53
2022-10-28T21:04:52.649Z,19.51
2022-10-28T21:08:54.699Z,19.47
2022-10-28T21:12:59.149Z,19.41
2022-10-28T21:17:01.732Z,19.36
2022-10-28T21:21:03.540Z,19.28
2022-10-28T21:25:05.632Z,19.23
2022-10-28T21:29:07.266Z,19.15
2022-10-28T21:33:09.479Z,19.12
2022-10-28T21:37:11.021Z,19.09
2022-10-28T21:41:19.939Z,19.06
2022-10-28T21:45:21.533Z,19.04
2022-10-28T21:49:24.216Z,19.00
2022-10-28T21:53:25.938Z,18.96
2022-10-28T21:57:30.177Z,18.92
2022-10-28T22:01:32.996Z,18.89
2022-10-28T22:05:34.750Z,18.86
2022-10-28T22:09:37.520Z,18.79
2022-10-28T22:13:39.386Z,18.76
2022-10-28T22:17:40.948Z,18.71
2022-10-28T22:21:43.615Z,18.64
2022-10-28T22:25:45.155Z,18.57
2022-10-28T22:29:46.806Z,18.54
2022-10-28T22:33:48.395Z,18.49
2022-10-28T22:37:50.009Z,18.48
2022-10-28T22:41:51.532Z,18.45
2022-10-28T22:45:56.130Z,18.42
2022-10-28T22:49:57.676Z,18.38
2022-10-28T22:53:59.422Z,18.36
2022-10-28T22:58:00.951Z,18.28
2022-10-28T23:02:02.561Z,18.24
2022-10-28T23:06:04.876Z,18.17
2022-10-28T23:10:06.879Z,18.10
2022-10-28T23:14:08.450Z,18.05
2022-10-28T23:18:10.047Z,18.00
2022-10-28T23:22:11.614Z,17.97
2022-10-28T23:26:15.519Z,17.99
2022-10-28T23:30:17.165Z,18.05
2022-10-28T23:34:18.833Z,18.11
2022-10-28T23:38:20.557Z,18.16
2022-10-28T23:42:22.093Z,18.21
2022-10-28T23:46:25.032Z,18.29
2022-10-28T23:50:26.637Z,18.31
2022-10-28T23:54:28.420Z,18.34
2022-10-28T23:58:29.949Z,18.41
